Time;durP1;ratioP1;P1;durP2;ratioP2;P2;SDS_P1;SDS_P2;PMS_P1;PMS_P2;Temp;Humidity;BMP_temperature;BMP_pressure;BME280_temperature;BME280_humidity;BME280_pressure;Samples;Min_cycle;Max_cycle;Signal;HPM_P1;HPM_P2
2023/12/04 00:01:55;;;;;;;12.07;5.30;;;;;;;11.62;69.76;99402.09;5010841;28;20211;-86
2023/12/04 00:04:22;;;;;;;11.43;4.97;;;;;;;11.64;69.51;99415.13;5009648;28;20183;-86
2023/12/04 00:06:48;;;;;;;10.17;4.90;;;;;;;11.58;70.22;99431.22;5010619;28;20182;-86
2023/12/04 00:09:14;;;;;;;11.57;4.80;;;;;;;11.64;69.63;99438.75;5010544;28;20264;-86
2023/12/04 00:11:39;;;;;;;11.20;5.30;;;;;;;11.69;69.63;99431.50;5010583;28;20277;-86
2023/12/04 00:14:05;;;;;;;9.53;5.07;;;;;;;11.73;69.59;99432.22;5009612;28;20640;-86
2023/12/04 00:16:34;;;;;;;9.17;4.73;;;;;;;11.74;68.25;99405.03;5010732;28;20186;-86
2023/12/04 00:19:00;;;;;;;9.73;5.07;;;;;;;11.56;68.69;99389.28;5010796;28;20190;-86
2023/12/04 00:21:25;;;;;;;11.70;5.27;;;;;;;11.57;69.31;99398.00;5010565;28;20601;-86
2023/12/04 00:23:51;;;;;;;9.10;4.97;;;;;;;11.56;69.33;99420.78;5009433;28;20259;-86
2023/12/04 00:26:16;;;;;;;9.37;4.60;;;;;;;11.50;69.83;99428.13;5010340;28;20668;-86
2023/12/04 00:28:43;;;;;;;10.90;4.63;;;;;;;11.47;69.33;99437.03;5010299;28;20179;-86
2023/12/04 00:31:10;;;;;;;9.83;5.43;;;;;;;11.48;69.76;99443.94;5010275;28;20189;-86
2023/12/04 00:33:37;;;;;;;10.07;4.33;;;;;;;11.55;69.72;99450.59;5010256;28;20324;-86
2023/12/04 00:36:03;;;;;;;10.73;4.53;;;;;;;11.51;69.71;99454.31;5010677;28;20633;-86
2023/12/04 00:38:29;;;;;;;10.47;5.43;;;;;;;11.34;69.57;99466.59;5011629;28;20206;-87
2023/12/04 00:40:55;;;;;;;11.27;5.57;;;;;;;11.25;69.69;99478.38;5013616;28;20199;-85
2023/12/04 00:43:21;;;;;;;15.20;5.97;;;;;;;11.14;70.07;99472.81;5014165;28;20180;-86
2023/12/04 00:45:46;;;;;;;10.83;5.00;;;;;;;10.94;70.87;99481.69;5013593;28;20182;-86
2023/12/04 00:48:13;;;;;;;11.67;5.73;;;;;;;10.79;71.72;99478.94;5013562;28;20652;-87
2023/12/04 00:50:39;;;;;;;10.80;6.67;;;;;;;10.78;71.26;99480.72;5013398;28;20196;-86
2023/12/04 00:53:04;;;;;;;9.80;5.57;;;;;;;10.79;71.54;99486.81;5013494;28;20175;-86
2023/12/04 00:55:30;;;;;;;12.60;5.73;;;;;;;10.73;71.76;99484.47;5013449;28;20629;-87
2023/12/04 00:57:56;;;;;;;6.77;4.30;;;;;;;10.66;71.75;99483.06;5013668;28;20189;-86
2023/12/04 01:00:26;;;;;;;12.20;5.73;;;;;;;10.65;72.14;99481.38;5013309;28;20229;-86
2023/12/04 01:02:53;;;;;;;14.30;6.57;;;;;;;10.77;72.00;99480.78;5013907;28;20217;-85
2023/12/04 01:05:18;;;;;;;9.83;5.30;;;;;;;10.74;71.00;99488.81;5013577;28;20197;-86
2023/12/04 01:07:45;;;;;;;10.60;5.23;;;;;;;10.65;71.07;99481.38;5013250;28;20182;-86
2023/12/04 01:10:10;;;;;;;9.50;5.77;;;;;;;10.73;71.10;99484.47;5013125;28;20264;-86
2023/12/04 01:12:36;;;;;;;11.13;5.27;;;;;;;10.60;71.10;99496.47;5013511;28;20650;-86
2023/12/04 01:15:03;;;;;;;9.90;5.20;;;;;;;10.60;71.20;99483.34;5013401;28;20179;-85
2023/12/04 01:17:30;;;;;;;10.40;5.03;;;;;;;10.57;71.12;99501.84;5013398;28;20269;-86
2023/12/04 01:19:55;;;;;;;12.83;6.13;;;;;;;10.52;71.12;99523.03;5013357;28;20190;-86
2023/12/04 01:22:21;;;;;;;10.23;5.53;;;;;;;10.56;71.75;99529.81;5012984;28;20210;-86
2023/12/04 01:24:46;;;;;;;13.43;5.87;;;;;;;10.74;71.06;99520.25;5013542;28;20258;-86
2023/12/04 01:27:13;;;;;;;13.97;5.93;;;;;;;10.82;70.87;99515.50;5012944;28;20179;-85
2023/12/04 01:29:38;;;;;;;11.20;5.27;;;;;;;10.82;70.78;99510.28;5011992;28;20267;-85
2023/12/04 01:32:06;;;;;;;12.27;5.80;;;;;;;10.77;70.27;99517.50;5012901;28;20225;-85
2023/12/04 01:34:32;;;;;;;12.37;5.70;;;;;;;10.64;69.95;99508.53;5012468;28;20584;-85
2023/12/04 01:36:59;;;;;;;10.00;5.10;;;;;;;10.33;69.39;99502.06;5013629;28;20238;-85
2023/12/04 01:39:25;;;;;;;9.77;4.73;;;;;;;10.30;69.42;99506.56;5012755;28;20178;-85
2023/12/04 01:41:50;;;;;;;11.30;5.00;;;;;;;10.38;69.46;99518.41;5012661;28;20199;-85
2023/12/04 01:44:15;;;;;;;11.23;6.37;;;;;;;10.48;69.48;99522.31;5012683;28;20179;-85
2023/12/04 01:46:42;;;;;;;9.33;4.90;;;;;;;10.47;69.09;99518.00;5012684;28;20182;-85
2023/12/04 01:49:12;;;;;;;13.53;5.37;;;;;;;10.38;69.55;99507.94;5019190;28;20190;-85
2023/12/04 01:51:39;;;;;;;11.23;5.63;;;;;;;10.28;70.08;99497.94;5032726;28;20155;-85
2023/12/04 01:54:07;;;;;;;10.53;5.10;;;;;;;10.20;70.50;99508.78;5032352;28;20269;-85
2023/12/04 01:56:35;;;;;;;11.10;5.20;;;;;;;10.12;69.87;99510.88;5031336;28;20186;-85
2023/12/04 01:59:05;;;;;;;11.67;6.07;;;;;;;9.95;70.35;99502.06;5032779;28;20180;-86
2023/12/04 02:01:31;;;;;;;8.23;4.27;;;;;;;9.71;71.39;99510.06;5032396;28;20208;-85
2023/12/04 02:04:00;;;;;;;10.70;4.97;;;;;;;9.65;71.21;99533.00;5031219;28;20208;-85
2023/12/04 02:06:25;;;;;;;13.17;5.70;;;;;;;9.80;71.00;99550.72;5031198;28;20214;-85
2023/12/04 02:08:52;;;;;;;8.57;4.93;;;;;;;9.85;70.73;99551.34;5032361;28;20170;-85
2023/12/04 02:11:18;;;;;;;9.13;4.83;;;;;;;9.95;70.68;99547.41;5032077;28;20204;-85
2023/12/04 02:13:43;;;;;;;13.97;6.23;;;;;;;10.06;70.38;99550.44;5032010;28;20176;-85
2023/12/04 02:16:11;;;;;;;9.47;4.97;;;;;;;9.98;70.30;99552.53;5032249;28;20234;-85
2023/12/04 02:18:38;;;;;;;10.97;5.40;;;;;;;9.80;70.87;99553.31;5032242;28;20178;-85
2023/12/04 02:21:03;;;;;;;12.23;5.40;;;;;;;9.74;70.74;99543.97;5032073;28;20193;-85
2023/12/04 02:23:29;;;;;;;6.50;3.80;;;;;;;9.62;70.18;99533.13;5032089;28;20204;-86
2023/12/04 02:25:59;;;;;;;8.90;4.43;;;;;;;9.51;71.19;99536.22;5030902;28;20193;-85
2023/12/04 02:28:32;;;;;;;10.17;4.80;;;;;;;9.62;70.76;99541.00;5032396;28;20171;-85
2023/12/04 02:31:01;;;;;;;8.30;4.57;;;;;;;9.64;70.84;99547.03;5032101;28;20188;-86
2023/12/04 02:33:29;;;;;;;10.63;5.37;;;;;;;9.61;71.27;99560.25;5031983;28;20509;-85
2023/12/04 02:35:58;;;;;;;9.40;5.03;;;;;;;9.67;70.55;99573.09;5031655;28;20554;-85
2023/12/04 02:38:25;;;;;;;12.17;5.37;;;;;;;9.57;70.98;99558.66;5032206;28;20185;-85
2023/12/04 02:40:51;;;;;;;9.17;5.27;;;;;;;9.58;71.18;99544.66;5031521;28;20677;-85
2023/12/04 02:43:16;;;;;;;13.77;5.67;;;;;;;9.54;70.78;99556.19;5031542;28;20181;-86
2023/12/04 02:45:42;;;;;;;11.57;4.90;;;;;;;9.47;71.14;99562.56;5031802;28;20177;-86
2023/12/04 02:48:10;;;;;;;11.13;5.13;;;;;;;9.46;71.08;99569.56;5031759;28;20623;-85
2023/12/04 02:50:35;;;;;;;12.17;4.83;;;;;;;9.48;70.61;99569.53;5031712;28;20636;-86
2023/12/04 02:53:01;;;;;;;13.57;5.17;;;;;;;9.51;70.16;99564.16;5031401;28;20178;-86
2023/12/04 02:55:28;;;;;;;9.20;4.60;;;;;;;9.53;70.27;99571.03;5031654;28;20238;-86
2023/12/04 02:57:54;;;;;;;12.00;5.17;;;;;;;9.64;69.44;99579.25;5031321;28;20179;-86
2023/12/04 03:00:20;;;;;;;8.07;4.60;;;;;;;9.64;69.27;99567.97;5031054;28;20190;-86
2023/12/04 03:02:46;;;;;;;11.17;5.37;;;;;;;9.63;68.92;99571.50;5030857;28;20179;-86
2023/12/04 03:05:12;;;;;;;10.43;5.17;;;;;;;9.65;69.12;99569.66;5031214;28;20245;-86
2023/12/04 03:07:39;;;;;;;13.60;7.40;;;;;;;9.71;68.86;99579.88;5031441;28;20709;-86
2023/12/04 03:10:05;;;;;;;10.73;5.33;;;;;;;9.60;68.92;99577.72;5031235;28;20179;-86
2023/12/04 03:12:30;;;;;;;15.43;5.67;;;;;;;9.55;69.19;99578.81;5031092;28;20168;-85
2023/12/04 03:14:57;;;;;;;12.53;5.83;;;;;;;9.65;69.03;99591.44;5031052;28;20182;-86
2023/12/04 03:17:25;;;;;;;8.63;4.47;;;;;;;9.50;68.67;99592.09;5030078;28;20713;-86
2023/12/04 03:19:50;;;;;;;13.33;4.97;;;;;;;8.95;69.27;99590.81;5031534;28;20179;-86
2023/12/04 03:22:17;;;;;;;10.73;5.50;;;;;;;8.85;70.48;99581.63;5029934;28;20196;-86
2023/12/04 03:24:43;;;;;;;10.90;5.23;;;;;;;8.97;70.02;99581.16;5029936;28;20257;-86
2023/12/04 03:27:09;;;;;;;9.13;4.87;;;;;;;9.02;70.09;99571.34;5030856;28;20193;-86
2023/12/04 03:29:35;;;;;;;11.23;5.87;;;;;;;8.88;69.89;99568.44;5031145;28;20258;-86
2023/12/04 03:32:02;;;;;;;11.67;4.83;;;;;;;8.75;69.75;99564.59;5029873;28;20199;-86
2023/12/04 03:34:28;;;;;;;10.50;4.17;;;;;;;8.64;70.13;99561.53;5030757;28;20695;-90
2023/12/04 03:36:55;;;;;;;11.80;4.33;;;;;;;8.53;70.06;99566.31;5030079;28;20266;-86
2023/12/04 03:39:21;;;;;;;8.83;4.60;;;;;;;8.47;70.16;99572.63;5031231;28;20257;-86
2023/12/04 03:41:48;;;;;;;7.93;4.03;;;;;;;8.52;70.35;99578.53;5029676;28;20793;-86
2023/12/04 03:44:13;;;;;;;6.73;3.63;;;;;;;8.60;70.19;99588.69;5029712;28;20541;-86
2023/12/04 03:46:38;;;;;;;9.30;3.73;;;;;;;8.44;70.26;99605.81;5029706;28;20171;-87
2023/12/04 03:49:05;;;;;;;10.50;4.47;;;;;;;8.32;70.01;99601.91;5030569;28;20263;-86
2023/12/04 03:51:31;;;;;;;7.67;3.97;;;;;;;8.30;70.75;99613.31;5030534;28;20174;-86
2023/12/04 03:53:56;;;;;;;7.93;3.70;;;;;;;8.45;69.91;99613.63;5029553;28;20175;-86
2023/12/04 03:56:22;;;;;;;8.77;3.80;;;;;;;8.38;70.14;99632.19;5030737;28;20171;-86
2023/12/04 03:58:48;;;;;;;8.13;3.47;;;;;;;8.42;69.38;99639.00;5029477;28;20253;-86
2023/12/04 04:01:14;;;;;;;11.50;3.97;;;;;;;8.25;69.97;99651.78;5030358;28;20194;-87
2023/12/04 04:03:42;;;;;;;9.43;3.83;;;;;;;8.47;70.11;99656.22;5030641;28;20235;-86
2023/12/04 04:06:08;;;;;;;9.53;4.07;;;;;;;8.55;69.30;99661.16;5030887;28;20223;-86
2023/12/04 04:08:35;;;;;;;8.50;3.93;;;;;;;8.52;69.03;99653.44;5030876;28;20178;-87
2023/12/04 04:11:00;;;;;;;10.70;4.23;;;;;;;8.61;68.83;99656.59;5030353;28;20299;-86
2023/12/04 04:13:26;;;;;;;9.93;4.77;;;;;;;8.68;68.73;99651.97;5029947;28;20576;-86
2023/12/04 04:15:51;;;;;;;7.80;3.60;;;;;;;8.76;68.99;99633.38;5030230;28;20176;-87
2023/12/04 04:18:18;;;;;;;8.10;3.60;;;;;;;8.64;68.49;99630.34;5030189;28;20174;-87
2023/12/04 04:20:43;;;;;;;8.83;3.90;;;;;;;8.64;69.07;99647.78;5030337;28;20724;-86
2023/12/04 04:23:09;;;;;;;11.77;4.40;;;;;;;8.60;68.14;99639.19;5029235;28;20275;-86
2023/12/04 04:25:34;;;;;;;8.33;3.67;;;;;;;8.41;68.79;99635.53;5030372;28;20535;-86
2023/12/04 04:28:01;;;;;;;7.50;3.83;;;;;;;8.44;69.05;99631.94;5030339;28;20637;-85
2023/12/04 04:30:28;;;;;;;8.27;3.80;;;;;;;8.33;69.11;99641.94;5030080;28;20182;-86
2023/12/04 04:32:55;;;;;;;14.13;4.87;;;;;;;8.23;69.48;99640.53;5030027;28;20178;-86
2023/12/04 04:35:20;;;;;;;7.90;3.97;;;;;;;8.23;68.98;99646.59;5029050;28;20167;-86
2023/12/04 04:37:47;;;;;;;9.50;3.90;;;;;;;8.13;69.71;99653.03;5029972;28;20186;-86
2023/12/04 04:40:13;;;;;;;10.20;4.77;;;;;;;8.12;69.58;99666.16;5030368;28;20651;-85
2023/12/04 04:42:38;;;;;;;8.97;4.00;;;;;;;8.12;68.63;99681.84;5029921;28;20248;-86
2023/12/04 04:45:04;;;;;;;7.30;3.90;;;;;;;8.17;69.32;99685.13;5029911;28;20186;-86
2023/12/04 04:47:31;;;;;;;8.50;4.57;;;;;;;8.22;68.86;99693.66;5030384;28;20194;-86
2023/12/04 04:49:56;;;;;;;9.40;3.87;;;;;;;8.32;68.95;99693.31;5028842;28;20197;-86
2023/12/04 04:52:22;;;;;;;11.50;5.00;;;;;;;8.40;68.72;99687.84;5030071;28;20554;-86
2023/12/04 04:54:47;;;;;;;7.00;4.33;;;;;;;8.45;68.65;99678.06;5028784;28;20192;-86
2023/12/04 04:57:14;;;;;;;12.80;3.90;;;;;;;8.37;68.17;99687.94;5028800;28;20247;-86
2023/12/04 04:59:40;;;;;;;12.40;4.50;;;;;;;8.32;68.54;99689.84;5029942;28;20181;-86
2023/12/04 05:02:05;;;;;;;9.83;3.97;;;;;;;8.46;67.80;99688.44;5029573;28;20210;-86
2023/12/04 05:04:32;;;;;;;10.80;4.23;;;;;;;8.43;67.30;99700.78;5029638;28;20174;-86
2023/12/04 05:06:58;;;;;;;7.90;4.20;;;;;;;8.39;67.57;99692.19;5028674;28;20277;-86
2023/12/04 05:09:24;;;;;;;6.60;3.77;;;;;;;8.18;67.38;99707.72;5021970;28;20179;-86
2023/12/04 05:11:49;;;;;;;8.63;4.53;;;;;;;8.22;67.77;99707.56;5009853;28;20653;-86
2023/12/04 05:14:15;;;;;;;9.07;4.80;;;;;;;8.31;67.29;99714.25;5010112;28;20175;-86
2023/12/04 05:16:40;;;;;;;12.40;4.97;;;;;;;8.39;67.52;99720.06;5010297;28;20175;-86
2023/12/04 05:19:06;;;;;;;8.93;4.27;;;;;;;8.35;67.83;99724.56;5008765;28;20171;-86
2023/12/04 05:21:31;;;;;;;9.83;4.97;;;;;;;8.42;67.24;99715.59;5009676;28;20228;-86
2023/12/04 05:23:57;;;;;;;8.03;3.80;;;;;;;8.49;67.22;99722.31;5009828;28;20619;-86
2023/12/04 05:26:22;;;;;;;7.13;3.87;;;;;;;8.49;66.82;99718.88;5012070;28;20175;-86
2023/12/04 05:28:48;;;;;;;8.03;4.00;;;;;;;8.44;67.35;99728.59;5013246;28;20183;-86
2023/12/04 05:31:13;;;;;;;7.67;3.33;;;;;;;8.43;66.76;99735.59;5012899;28;20635;-86
2023/12/04 05:33:39;;;;;;;8.10;3.53;;;;;;;8.46;67.04;99724.19;5012904;28;20189;-86
2023/12/04 05:36:05;;;;;;;7.53;3.67;;;;;;;8.44;66.95;99721.63;5011921;28;20544;-86
2023/12/04 05:38:32;;;;;;;7.93;4.00;;;;;;;8.41;66.06;99729.56;5011866;28;20211;-86
2023/12/04 05:40:57;;;;;;;9.07;3.93;;;;;;;8.43;65.94;99730.38;5011780;28;20234;-86
2023/12/04 05:43:23;;;;;;;10.43;4.63;;;;;;;8.31;65.93;99725.56;5012742;28;20614;-86
2023/12/04 05:45:48;;;;;;;9.03;4.03;;;;;;;8.28;66.66;99732.66;5011789;28;20306;-86
2023/12/04 05:48:14;;;;;;;5.87;2.80;;;;;;;8.25;66.51;99735.34;5012980;28;20193;-86
2023/12/04 05:50:39;;;;;;;10.27;3.80;;;;;;;8.23;66.44;99739.78;5011731;28;20171;-86
2023/12/04 05:53:07;;;;;;;11.33;4.87;;;;;;;8.26;66.22;99747.47;5011641;28;20247;-85
2023/12/04 05:55:33;;;;;;;8.60;4.33;;;;;;;8.11;66.45;99745.38;5012850;28;20181;-85
2023/12/04 05:57:58;;;;;;;8.10;4.07;;;;;;;8.13;66.64;99740.97;5012568;28;20534;-85
2023/12/04 06:00:24;;;;;;;7.73;4.20;;;;;;;8.22;66.54;99745.88;5012414;28;20657;-86
2023/12/04 06:02:50;;;;;;;10.30;4.10;;;;;;;8.25;66.13;99745.78;5011515;28;20182;-86
2023/12/04 06:05:15;;;;;;;13.33;4.83;;;;;;;8.22;66.62;99745.88;5011517;28;20187;-86
2023/12/04 06:07:41;;;;;;;12.93;4.17;;;;;;;8.12;66.70;99747.09;5011432;28;20183;-86
2023/12/04 06:10:08;;;;;;;9.23;4.53;;;;;;;8.13;67.22;99754.00;5012370;28;20626;-86
2023/12/04 06:12:34;;;;;;;7.43;4.43;;;;;;;8.15;67.25;99758.28;5012318;28;20205;-86
2023/12/04 06:15:00;;;;;;;10.70;4.33;;;;;;;8.17;67.62;99761.72;5011300;28;20182;-86
2023/12/04 06:17:26;;;;;;;7.53;3.43;;;;;;;8.14;67.26;99767.03;5012786;28;20175;-86
2023/12/04 06:19:53;;;;;;;10.07;5.10;;;;;;;8.11;67.78;99763.66;5012210;28;20182;-85
2023/12/04 06:22:21;;;;;;;9.83;4.30;;;;;;;8.06;66.71;99766.44;5012365;28;20203;-86
2023/12/04 06:24:47;;;;;;;10.17;4.67;;;;;;;8.03;67.28;99771.75;5012355;28;20507;-86
2023/12/04 06:27:16;;;;;;;8.13;4.37;;;;;;;8.01;67.14;99769.19;5012100;28;20668;-86
2023/12/04 06:29:43;;;;;;;11.50;4.53;;;;;;;8.07;67.26;99777.72;5011075;28;20175;-86
2023/12/04 06:32:09;;;;;;;10.10;4.37;;;;;;;7.99;67.41;99784.03;5012007;28;20540;-86
2023/12/04 06:34:35;;;;;;;10.10;5.00;;;;;;;7.91;67.55;99793.03;5012250;28;20535;-86
2023/12/04 06:37:02;;;;;;;7.43;3.97;;;;;;;8.09;66.57;99787.22;5010836;28;20685;-86
2023/12/04 06:39:32;;;;;;;9.17;4.33;;;;;;;8.10;66.44;99793.31;5011891;28;20630;-86
2023/12/04 06:41:58;;;;;;;8.23;4.43;;;;;;;8.12;66.84;99796.72;5011794;28;20645;-86
2023/12/04 06:44:24;;;;;;;11.87;4.67;;;;;;;8.16;67.09;99787.88;5012351;28;20251;-86
2023/12/04 06:46:51;;;;;;;8.50;5.13;;;;;;;8.20;67.03;99794.72;5010805;28;20645;-86
2023/12/04 06:49:18;;;;;;;11.47;5.73;;;;;;;8.20;67.18;99789.50;5010787;28;20575;-86
2023/12/04 06:51:44;;;;;;;14.67;5.47;;;;;;;8.29;67.42;99802.25;5012221;28;20246;-85
2023/12/04 06:54:09;;;;;;;18.30;5.77;;;;;;;8.33;67.13;99801.28;5011923;28;20610;-86
2023/12/04 06:56:35;;;;;;;10.10;5.37;;;;;;;8.25;66.60;99809.31;5011643;28;20179;-86
2023/12/04 06:59:00;;;;;;;11.07;4.40;;;;;;;8.18;66.14;99807.78;5011579;28;20171;-86
2023/12/04 07:01:25;;;;;;;10.33;4.83;;;;;;;8.24;66.98;99811.97;5011434;28;20199;-86
2023/12/04 07:03:51;;;;;;;10.43;4.37;;;;;;;8.19;66.18;99808.66;5011534;28;20172;-86
2023/12/04 07:06:17;;;;;;;10.10;5.17;;;;;;;8.31;66.88;99829.19;5011493;28;20183;-86
2023/12/04 07:08:43;;;;;;;8.70;4.20;;;;;;;8.43;66.43;99827.03;5011511;28;20206;-86
2023/12/04 07:11:09;;;;;;;7.90;4.13;;;;;;;8.46;65.92;99828.69;5011322;28;20557;-86
2023/12/04 07:13:34;;;;;;;12.67;5.93;;;;;;;8.50;65.52;99841.59;5011367;28;20629;-86
2023/12/04 07:16:00;;;;;;;11.10;5.33;;;;;;;8.53;65.72;99841.50;5011341;28;20638;-86
2023/12/04 07:18:26;;;;;;;15.93;6.63;;;;;;;8.61;65.75;99838.63;5011842;28;20187;-87
2023/12/04 07:20:51;;;;;;;20.27;5.90;;;;;;;8.69;66.09;99838.38;5011171;28;20213;-86
2023/12/04 07:23:17;;;;;;;8.93;4.77;;;;;;;8.80;66.19;99834.50;5011498;28;20180;-87
2023/12/04 07:25:42;;;;;;;10.27;5.63;;;;;;;8.84;65.82;99840.47;5011222;28;20247;-86
2023/12/04 07:28:08;;;;;;;8.93;4.83;;;;;;;8.82;63.70;99844.91;5010251;28;20622;-87
2023/12/04 07:30:33;;;;;;;11.53;5.60;;;;;;;8.81;64.55;99840.56;5010177;28;20240;-87
2023/12/04 07:32:59;;;;;;;11.17;5.80;;;;;;;8.81;63.37;99841.41;5011645;28;20183;-86
2023/12/04 07:35:26;;;;;;;9.03;4.83;;;;;;;8.78;61.81;99845.91;5010118;28;20609;-87
2023/12/04 07:37:52;;;;;;;9.90;4.63;;;;;;;8.61;61.25;99842.09;5011027;28;20587;-87
2023/12/04 07:40:18;;;;;;;11.73;5.23;;;;;;;8.67;61.50;99842.81;5011237;28;20196;-87
2023/12/04 07:42:43;;;;;;;8.97;5.20;;;;;;;8.64;60.32;99854.22;5010014;28;20637;-87
2023/12/04 07:45:10;;;;;;;9.30;3.97;;;;;;;8.53;62.25;99845.88;5010892;28;20257;-87
2023/12/04 07:47:36;;;;;;;11.43;4.87;;;;;;;8.46;61.28;99858.28;5009401;28;20187;-87
2023/12/04 07:50:01;;;;;;;8.87;4.80;;;;;;;8.50;61.03;99857.28;5010858;28;20606;-87
2023/12/04 07:52:27;;;;;;;7.67;4.77;;;;;;;8.57;61.17;99863.13;5010839;28;20529;-87
2023/12/04 07:54:52;;;;;;;13.63;5.77;;;;;;;8.54;60.84;99855.44;5010787;28;20171;-87
2023/12/04 07:57:18;;;;;;;12.77;6.00;;;;;;;8.36;59.81;99866.47;5010996;28;20243;-88
2023/12/04 07:59:44;;;;;;;10.50;5.27;;;;;;;8.46;61.01;99866.09;5010693;28;20553;-88
2023/12/04 08:02:10;;;;;;;18.67;5.67;;;;;;;8.51;60.55;99869.44;5009651;28;20281;-87
2023/12/04 08:04:36;;;;;;;12.57;5.70;;;;;;;8.64;61.46;99869.91;5010641;28;20678;-88
2023/12/04 08:07:02;;;;;;;12.03;5.10;;;;;;;8.65;61.57;99866.34;5010895;28;20186;-88
2023/12/04 08:09:27;;;;;;;11.63;5.90;;;;;;;8.50;60.31;99865.13;5010605;28;20194;-88
2023/12/04 08:11:53;;;;;;;9.30;4.10;;;;;;;8.35;59.74;99869.97;5009952;28;20634;-91
2023/12/04 08:14:18;;;;;;;13.53;6.60;;;;;;;8.37;60.58;99876.00;5010522;28;20206;-88
2023/12/04 08:16:44;;;;;;;10.87;5.20;;;;;;;8.39;59.48;99876.81;5009498;28;20183;-88
2023/12/04 08:19:09;;;;;;;20.23;7.37;;;;;;;8.50;60.82;99874.72;5010768;28;20179;-88
2023/12/04 08:21:35;;;;;;;13.23;6.20;;;;;;;8.56;60.53;99879.75;5010616;28;20616;-88
2023/12/04 08:24:00;;;;;;;11.73;5.47;;;;;;;8.56;60.35;99880.59;5010663;28;20239;-88
2023/12/04 08:26:26;;;;;;;9.40;5.17;;;;;;;8.57;60.51;99884.03;5010634;28;20203;-89
2023/12/04 08:28:52;;;;;;;10.27;5.17;;;;;;;8.64;60.58;99882.97;5010325;28;20181;-88
2023/12/04 08:31:18;;;;;;;9.50;4.70;;;;;;;8.55;59.03;99880.63;5009386;28;20167;-88
2023/12/04 08:33:43;;;;;;;9.73;5.03;;;;;;;8.48;58.32;99881.75;5010297;28;20186;-88
2023/12/04 08:36:10;;;;;;;11.07;4.53;;;;;;;8.32;56.37;99876.16;5010256;28;20198;-88
2023/12/04 08:38:36;;;;;;;13.37;5.67;;;;;;;8.37;58.56;99878.63;5010776;28;20171;-88
2023/12/04 08:41:03;;;;;;;13.80;6.00;;;;;;;8.49;59.38;99876.47;5010165;28;20292;-88
2023/12/04 08:43:29;;;;;;;8.37;4.07;;;;;;;8.57;58.63;99876.22;5010111;28;20183;-88
2023/12/04 08:45:55;;;;;;;13.70;5.13;;;;;;;8.65;57.18;99876.81;5010476;28;20171;-88
2023/12/04 08:48:20;;;;;;;12.57;5.97;;;;;;;8.69;58.11;99873.22;5009171;28;20184;-88
2023/12/04 08:50:46;;;;;;;13.03;5.90;;;;;;;8.67;57.11;99868.94;5009172;28;20637;-89
2023/12/04 08:53:12;;;;;;;13.70;5.23;;;;;;;8.77;57.08;99871.19;5010319;28;20178;-88
2023/12/04 08:55:37;;;;;;;8.53;4.57;;;;;;;8.76;56.55;99873.84;5010050;28;20186;-89
2023/12/04 08:58:03;;;;;;;10.67;5.13;;;;;;;8.76;56.47;99866.00;5009072;28;20260;-88
2023/12/04 09:00:29;;;;;;;14.03;4.03;;;;;;;8.75;56.97;99862.56;5012507;28;20198;-88
2023/12/04 09:02:55;;;;;;;10.30;4.60;;;;;;;8.86;56.87;99867.41;5013896;28;20217;-88
2023/12/04 09:05:21;;;;;;;13.50;4.97;;;;;;;8.80;57.45;99865.88;5013614;28;20171;-88
2023/12/04 09:07:46;;;;;;;9.27;4.70;;;;;;;8.85;58.32;99866.56;5013594;28;20171;-88
2023/12/04 09:10:12;;;;;;;9.20;5.00;;;;;;;8.97;58.77;99867.88;5012260;28;20180;-89
2023/12/04 09:12:37;;;;;;;10.13;4.97;;;;;;;8.75;57.61;99867.78;5012274;28;20548;-88
2023/12/04 09:15:05;;;;;;;11.60;5.23;;;;;;;8.71;57.97;99868.78;5013215;28;20700;-88
2023/12/04 09:17:30;;;;;;;8.73;4.67;;;;;;;8.58;58.12;99859.63;5012202;28;20183;-89
2023/12/04 09:19:56;;;;;;;9.37;4.73;;;;;;;8.40;58.75;99855.00;5013170;28;20186;-89
2023/12/04 09:22:21;;;;;;;9.17;4.43;;;;;;;8.31;59.10;99855.28;5013353;28;20709;-89
2023/12/04 09:24:47;;;;;;;11.33;4.90;;;;;;;8.42;60.06;99858.44;5012138;28;20198;-89
2023/12/04 09:27:12;;;;;;;11.10;5.50;;;;;;;8.38;59.75;99857.69;5013580;28;20175;-88
2023/12/04 09:29:38;;;;;;;13.13;5.83;;;;;;;8.37;59.95;99860.34;5012399;28;20206;-88
2023/12/04 09:32:03;;;;;;;10.73;5.63;;;;;;;8.32;60.07;99857.00;5013234;28;20167;-88
2023/12/04 09:34:29;;;;;;;12.83;5.80;;;;;;;8.19;60.83;99851.31;5013193;28;20189;-88
2023/12/04 09:36:54;;;;;;;14.03;6.70;;;;;;;8.09;60.76;99851.63;5013171;28;20182;-88
2023/12/04 09:39:20;;;;;;;11.27;5.67;;;;;;;8.20;60.98;99850.38;5013103;28;20183;-88
2023/12/04 09:41:46;;;;;;;13.90;6.20;;;;;;;8.39;60.75;99848.06;5013005;28;20210;-87
2023/12/04 09:44:12;;;;;;;13.87;5.30;;;;;;;8.14;59.33;99847.13;5011788;28;20172;-90
2023/12/04 09:46:38;;;;;;;10.70;5.23;;;;;;;8.14;59.48;99847.13;5012071;28;20236;-88
2023/12/04 09:49:04;;;;;;;15.33;6.23;;;;;;;8.25;60.01;99843.28;5012673;28;20613;-89
2023/12/04 09:51:30;;;;;;;20.07;7.90;;;;;;;8.25;60.60;99843.28;5012932;28;20175;-88
2023/12/04 09:54:01;;;;;;;11.10;6.23;;;;;;;8.32;60.35;99854.41;5012663;28;20303;-89
2023/12/04 09:56:28;;;;;;;12.83;5.57;;;;;;;8.30;59.90;99851.00;5012906;28;20151;-88
2023/12/04 09:58:59;;;;;;;10.70;5.80;;;;;;;8.41;60.47;99854.94;5012807;28;20621;-89
2023/12/04 10:01:25;;;;;;;11.67;5.37;;;;;;;8.40;59.80;99850.66;5011524;28;20661;-88
2023/12/04 10:03:50;;;;;;;11.90;5.50;;;;;;;8.33;60.12;99843.88;5011808;28;20182;-89
2023/12/04 10:06:19;;;;;;;12.40;5.73;;;;;;;8.24;59.84;99851.16;5012454;28;20186;-88
2023/12/04 10:08:45;;;;;;;11.57;6.63;;;;;;;8.33;60.60;99854.34;5012397;28;20211;-89
2023/12/04 10:11:12;;;;;;;13.80;6.40;;;;;;;8.46;60.84;99847.00;5011982;28;20223;-88
2023/12/04 10:13:41;;;;;;;11.70;5.80;;;;;;;8.44;60.97;99849.63;5011330;28;20186;-89
2023/12/04 10:16:07;;;;;;;15.47;5.50;;;;;;;8.49;61.45;99837.28;5012270;28;20183;-88
2023/12/04 10:18:33;;;;;;;14.10;6.33;;;;;;;8.53;62.47;99836.28;5012789;28;20530;-89
2023/12/04 10:20:59;;;;;;;17.73;5.70;;;;;;;8.56;63.07;99835.31;5012154;28;20214;-88
2023/12/04 10:23:39;;;;;;;11.73;5.67;;;;;;;8.73;62.28;99838.22;5011233;28;20178;-89
2023/12/04 10:26:05;;;;;;;12.67;6.43;;;;;;;8.71;62.90;99849.63;5012456;28;20180;-89
2023/12/04 10:28:30;;;;;;;14.37;5.67;;;;;;;8.89;62.63;99844.63;5011088;28;20175;-89
2023/12/04 10:30:56;;;;;;;11.13;5.27;;;;;;;8.96;62.00;99847.91;5012307;28;20184;-89
2023/12/04 10:33:28;;;;;;;13.87;6.63;;;;;;;8.87;63.47;99841.22;5011039;28;20582;-89
2023/12/04 10:35:55;;;;;;;13.93;6.57;;;;;;;8.99;62.85;99848.63;5012272;28;20156;-89
2023/12/04 10:38:21;;;;;;;14.17;6.47;;;;;;;9.17;63.38;99844.53;5011952;28;20187;-89
2023/12/04 10:40:46;;;;;;;20.03;6.83;;;;;;;9.28;62.46;99848.47;5010835;28;20207;-89
2023/12/04 10:43:16;;;;;;;17.17;7.10;;;;;;;9.38;62.77;99842.91;5011945;28;20305;-90
2023/12/04 10:45:43;;;;;;;19.10;7.07;;;;;;;9.52;62.91;99845.84;5011442;28;20647;-89
2023/12/04 10:48:10;;;;;;;12.50;6.47;;;;;;;9.55;62.52;99841.38;5010877;28;20216;-89
2023/12/04 10:50:44;;;;;;;11.77;5.67;;;;;;;9.65;62.50;99845.34;5011742;28;20178;-89
2023/12/04 10:53:14;;;;;;;16.77;7.07;;;;;;;9.66;61.74;99848.81;5012037;28;20245;-89
2023/12/04 10:55:41;;;;;;;13.27;6.57;;;;;;;9.63;61.56;99843.69;5010715;28;20181;-89
2023/12/04 10:58:12;;;;;;;15.07;7.10;;;;;;;9.63;61.35;99848.94;5011920;28;20591;-89
2023/12/04 11:00:48;;;;;;;14.13;6.73;;;;;;;9.58;61.74;99851.72;5011549;28;20569;-89
2023/12/04 11:03:22;;;;;;;12.03;6.73;;;;;;;9.50;61.58;99863.38;5011905;28;20583;-88
2023/12/04 11:05:52;;;;;;;15.70;7.47;;;;;;;9.49;62.03;99856.44;5010652;28;20171;-89
2023/12/04 11:08:19;;;;;;;17.87;7.30;;;;;;;9.35;61.87;99850.88;5011674;28;20565;-89
2023/12/04 11:10:54;;;;;;;13.23;6.60;;;;;;;9.43;61.67;99857.53;5010463;28;20191;-89
2023/12/04 11:13:37;;;;;;;30.37;8.53;;;;;;;9.40;62.17;99862.00;5012061;28;20200;-89
2023/12/04 11:16:12;;;;;;;13.00;6.07;;;;;;;9.41;61.60;99863.72;5011703;28;20626;-89
2023/12/04 11:18:43;;;;;;;17.00;8.47;;;;;;;9.38;61.73;99862.06;5011689;28;20173;-89
2023/12/04 11:21:10;;;;;;;15.90;7.50;;;;;;;9.37;62.36;99862.97;5011209;28;20559;-89
2023/12/04 11:23:36;;;;;;;18.33;7.83;;;;;;;9.40;62.37;99869.88;5009465;28;20207;-89
2023/12/04 11:26:05;;;;;;;18.97;6.67;;;;;;;9.43;61.63;99868.00;5010304;28;20171;-89
2023/12/04 11:28:36;;;;;;;18.53;7.30;;;;;;;9.48;61.49;99865.22;5011448;28;20185;-89
2023/12/04 11:31:02;;;;;;;17.83;7.70;;;;;;;9.53;61.60;99847.56;5011425;28;20152;-89